Winooski, Vermont
Current Conditions -  °F | °C
As of 1:54 PM on Thursday 30 Oct 2014 (Local Time) from KBTV Reporting Station
Scattered Clouds Scattered Clouds  
Wind Chill: 50°   Ceiling: Unl
Heat Index: 50°   Visibility: 10mi
Dew Point: 33°   Wind: 10mph
Humidity: 52%   Direction: 340°NNW
Pressure: 29.96"   Gusts: NA
Location:  44.49°N, 73.19°W
Report Text: KBTV 301754Z 34009KT 10SM SCT037 10/01 A2996 RMK AO2 SLP147 T01000006 10111 20083 58004
Loading
Personal Weather Stations






























Interactive Weather Map
Tropical Storm Tracking
New forecast layout! Learn more

10-Day Weather Forecast

Advertisements
Track Severe Weather on mobile